createdAt,value
2018-01-03T00:01:35.681Z,169.33
2018-01-03T00:04:02.072Z,175.93
2018-01-03T00:06:28.467Z,187.50
2018-01-03T00:08:54.837Z,198.40
2018-01-03T00:11:21.276Z,231.03
2018-01-03T00:13:47.624Z,226.77
2018-01-03T00:16:14.028Z,177.80
2018-01-03T00:18:40.424Z,160.30
2018-01-03T00:21:06.851Z,178.20
2018-01-03T00:23:33.311Z,161.60
2018-01-03T00:25:59.749Z,154.93
2018-01-03T00:28:26.151Z,142.53
2018-01-03T00:30:52.587Z,134.83
2018-01-03T00:33:18.988Z,141.93
2018-01-03T00:35:45.399Z,137.23
2018-01-03T00:38:11.831Z,140.63
2018-01-03T00:40:38.224Z,129.70
2018-01-03T00:43:04.624Z,139.13
2018-01-03T00:45:31.052Z,140.23
2018-01-03T00:47:57.505Z,134.57
2018-01-03T00:50:23.900Z,96.30
2018-01-03T00:52:50.310Z,85.83
2018-01-03T00:55:16.698Z,91.60
2018-01-03T00:57:43.138Z,88.00
2018-01-03T01:00:09.639Z,90.30
2018-01-03T01:02:36.148Z,87.10
2018-01-03T01:05:02.588Z,88.70
2018-01-03T01:07:29.074Z,78.23
2018-01-03T01:09:55.519Z,90.17
2018-01-03T01:12:21.905Z,80.93
2018-01-03T01:14:48.271Z,95.97
2018-01-03T01:17:14.624Z,92.27
2018-01-03T01:19:41.028Z,88.67
2018-01-03T01:22:07.459Z,87.77
2018-01-03T01:24:33.855Z,88.70
2018-01-03T01:27:00.245Z,91.80
2018-01-03T01:29:26.731Z,93.13
2018-01-03T01:31:53.183Z,92.10
2018-01-03T01:34:19.563Z,88.90
2018-01-03T01:36:45.962Z,85.43
2018-01-03T01:39:12.308Z,88.97
2018-01-03T01:41:38.831Z,77.90
2018-01-03T01:44:05.221Z,84.13
2018-01-03T01:46:31.627Z,79.30
2018-01-03T01:49:07.206Z,83.33
2018-01-03T01:51:33.660Z,75.57
2018-01-03T01:54:00.096Z,78.77
2018-01-03T01:56:26.630Z,76.60
2018-01-03T01:58:52.967Z,75.90
2018-01-03T02:01:19.351Z,75.67
2018-01-03T02:03:45.831Z,74.50
2018-01-03T02:06:12.219Z,81.37
2018-01-03T02:08:38.563Z,72.20
2018-01-03T02:11:05.032Z,83.20
2018-01-03T02:13:31.462Z,80.07
2018-01-03T02:15:57.945Z,87.90
2018-01-03T02:18:24.339Z,83.70
2018-01-03T02:20:50.694Z,83.90
2018-01-03T02:23:17.100Z,90.47
2018-01-03T02:25:43.476Z,87.77
2018-01-03T02:28:09.907Z,96.23
2018-01-03T02:30:36.287Z,94.53
2018-01-03T02:33:02.703Z,106.93
2018-01-03T02:35:29.139Z,102.43
2018-01-03T02:37:55.590Z,105.50
2018-01-03T02:40:22.087Z,108.40
2018-01-03T02:42:48.492Z,108.63
2018-01-03T02:45:14.907Z,119.43
2018-01-03T02:47:41.332Z,117.83
2018-01-03T02:50:07.756Z,112.17
2018-01-03T02:52:34.139Z,114.00
2018-01-03T02:55:00.610Z,108.43
2018-01-03T02:57:26.998Z,98.63
2018-01-03T02:59:53.398Z,92.90
2018-01-03T03:02:19.823Z,95.53
2018-01-03T03:04:46.198Z,84.63
2018-01-03T03:07:12.580Z,75.50
2018-01-03T03:09:38.990Z,68.40
2018-01-03T03:12:05.421Z,58.43
2018-01-03T03:14:31.894Z,54.87
2018-01-03T03:16:58.339Z,49.73
2018-01-03T03:19:24.837Z,62.83
2018-01-03T03:21:51.267Z,64.07
2018-01-03T03:24:17.723Z,70.50
2018-01-03T03:26:44.157Z,78.17
2018-01-03T03:29:10.555Z,79.10
2018-01-03T03:31:37.057Z,84.77
2018-01-03T03:34:03.408Z,85.70
2018-01-03T03:36:29.808Z,82.47
2018-01-03T03:38:56.599Z,75.80
2018-01-03T03:41:22.991Z,77.30
2018-01-03T03:43:49.388Z,68.23
2018-01-03T03:46:15.911Z,73.60
2018-01-03T03:48:42.408Z,65.63
2018-01-03T03:51:08.808Z,66.40
2018-01-03T03:53:35.240Z,61.90
2018-01-03T03:56:01.591Z,53.00
2018-01-03T03:58:27.959Z,52.77
2018-01-03T04:00:54.442Z,45.37
2018-01-03T04:03:20.895Z,41.47
2018-01-03T04:05:47.315Z,38.00
2018-01-03T04:08:13.749Z,33.23
2018-01-03T04:10:40.171Z,24.70
2018-01-03T04:13:06.615Z,22.40
2018-01-03T04:15:33.000Z,18.00
2018-01-03T04:17:59.349Z,19.83
2018-01-03T04:20:25.885Z,19.13
2018-01-03T04:22:52.291Z,18.90
2018-01-03T04:25:18.627Z,18.40
2018-01-03T04:27:45.029Z,19.37
2018-01-03T04:30:11.495Z,19.87
2018-01-03T04:32:37.847Z,19.63
2018-01-03T04:35:04.216Z,14.40
2018-01-03T04:37:30.640Z,17.30
2018-01-03T04:39:57.046Z,14.13
2018-01-03T04:42:23.494Z,15.27
2018-01-03T04:44:49.888Z,12.57
2018-01-03T04:47:16.296Z,12.27
2018-01-03T04:49:42.651Z,8.30
2018-01-03T04:52:09.034Z,7.00
2018-01-03T04:54:35.461Z,6.17
2018-01-03T04:57:01.811Z,4.97
2018-01-03T04:59:28.223Z,7.07
2018-01-03T05:01:54.805Z,4.50
2018-01-03T05:04:21.431Z,8.80
2018-01-03T05:06:48.021Z,9.30
2018-01-03T05:09:14.454Z,8.83
2018-01-03T05:11:40.823Z,10.17
2018-01-03T05:14:07.244Z,11.73
2018-01-03T05:16:33.645Z,11.13
2018-01-03T05:19:00.013Z,8.40
2018-01-03T05:21:26.429Z,7.73
2018-01-03T05:23:52.775Z,5.27
2018-01-03T05:26:20.224Z,5.30
2018-01-03T05:28:46.632Z,7.57
2018-01-03T05:31:13.047Z,4.40
2018-01-03T05:33:39.403Z,4.80
2018-01-03T05:36:05.951Z,6.00
2018-01-03T05:38:32.318Z,5.27
2018-01-03T05:40:58.891Z,5.80
2018-01-03T05:43:25.283Z,7.47
2018-01-03T05:45:51.715Z,4.73
2018-01-03T05:48:18.180Z,5.40
2018-01-03T05:50:44.603Z,4.70
2018-01-03T05:53:10.983Z,3.87
2018-01-03T05:55:37.355Z,5.70
2018-01-03T05:58:03.804Z,5.43
2018-01-03T06:00:30.263Z,6.70
2018-01-03T06:02:56.660Z,6.37
2018-01-03T06:05:23.236Z,6.30
2018-01-03T06:07:49.615Z,7.87
2018-01-03T06:10:15.995Z,15.47
2018-01-03T06:12:42.536Z,11.33
2018-01-03T06:15:08.895Z,6.70
2018-01-03T06:17:35.296Z,8.70
2018-01-03T06:20:01.707Z,4.87
2018-01-03T06:22:28.083Z,6.33
2018-01-03T06:24:54.596Z,9.87
2018-01-03T06:27:21.109Z,7.33
2018-01-03T06:29:47.476Z,6.87
2018-01-03T06:32:13.955Z,5.07
2018-01-03T06:34:40.440Z,8.03
2018-01-03T06:37:06.942Z,8.13
2018-01-03T06:39:33.366Z,7.37
2018-01-03T06:41:59.822Z,7.67
2018-01-03T06:44:26.211Z,17.63
2018-01-03T06:46:52.617Z,10.97
2018-01-03T06:49:19.043Z,7.27
2018-01-03T06:51:45.422Z,6.27
2018-01-03T06:54:11.847Z,8.03
2018-01-03T06:56:38.258Z,5.83
2018-01-03T06:59:04.623Z,17.00
2018-01-03T07:01:31.027Z,13.57
2018-01-03T07:03:59.305Z,11.17
2018-01-03T07:06:25.743Z,12.00
2018-01-03T07:08:52.296Z,9.73
2018-01-03T07:11:18.732Z,6.93
2018-01-03T07:13:45.087Z,6.77
2018-01-03T07:16:11.467Z,5.23
2018-01-03T07:18:37.968Z,15.60
2018-01-03T07:21:04.348Z,6.37
2018-01-03T07:23:30.799Z,7.93
2018-01-03T07:25:57.215Z,7.80
2018-01-03T07:28:23.673Z,21.10
2018-01-03T07:30:50.087Z,7.40
2018-01-03T07:33:16.494Z,19.60
2018-01-03T07:35:42.880Z,6.13
2018-01-03T07:38:09.257Z,5.70
2018-01-03T07:40:35.840Z,5.03
2018-01-03T07:43:02.286Z,6.90
2018-01-03T07:45:28.696Z,4.20
2018-01-03T07:47:55.174Z,11.30
2018-01-03T07:50:21.554Z,9.80
2018-01-03T07:52:47.939Z,8.93
2018-01-03T07:55:14.372Z,6.43
2018-01-03T07:57:40.776Z,10.33
2018-01-03T08:00:07.198Z,6.37
2018-01-03T08:02:33.597Z,5.47
2018-01-03T08:05:00.748Z,6.67
2018-01-03T08:07:27.227Z,6.37
2018-01-03T08:09:53.911Z,8.90
2018-01-03T08:12:20.367Z,7.57
2018-01-03T08:14:46.743Z,6.07
2018-01-03T08:17:13.335Z,7.03
2018-01-03T08:19:39.681Z,9.50
2018-01-03T08:22:06.163Z,3.97
2018-01-03T08:24:32.593Z,7.60
2018-01-03T08:26:59.035Z,7.23
2018-01-03T08:29:25.472Z,10.63
2018-01-03T08:31:51.924Z,9.20
2018-01-03T08:34:18.430Z,10.90
2018-01-03T08:36:44.830Z,10.80
2018-01-03T08:39:11.275Z,9.03
2018-01-03T08:41:37.647Z,6.67
2018-01-03T08:44:04.056Z,7.53
2018-01-03T08:46:30.595Z,8.27
2018-01-03T08:48:57.007Z,8.83
2018-01-03T08:51:23.376Z,7.43
2018-01-03T08:53:49.799Z,7.70
2018-01-03T08:56:16.255Z,4.77
2018-01-03T08:58:42.724Z,7.80
2018-01-03T09:01:09.171Z,7.60
2018-01-03T09:03:35.627Z,6.80
2018-01-03T09:06:02.039Z,4.53
2018-01-03T09:08:28.443Z,4.53
2018-01-03T09:10:54.836Z,6.10
2018-01-03T09:13:21.314Z,5.70
2018-01-03T09:15:47.891Z,3.03
2018-01-03T09:18:14.267Z,5.73
2018-01-03T09:20:40.741Z,6.00
2018-01-03T09:23:07.424Z,4.90
2018-01-03T09:25:33.959Z,6.27
2018-01-03T09:28:00.344Z,5.13
2018-01-03T09:30:26.819Z,4.30
2018-01-03T09:32:53.207Z,7.50
2018-01-03T09:35:19.640Z,4.57
2018-01-03T09:37:46.080Z,6.50
2018-01-03T09:40:12.562Z,6.13
2018-01-03T09:42:39.018Z,4.07
2018-01-03T09:45:05.523Z,5.53
2018-01-03T09:47:31.938Z,6.50
2018-01-03T09:49:58.292Z,3.60
2018-01-03T09:52:24.744Z,3.77
2018-01-03T09:54:51.167Z,4.07
2018-01-03T09:57:17.520Z,3.90
2018-01-03T09:59:44.049Z,3.60
2018-01-03T10:02:10.526Z,4.60
2018-01-03T10:04:36.869Z,3.90
2018-01-03T10:07:03.580Z,4.13
2018-01-03T10:09:30.074Z,5.07
2018-01-03T10:11:56.503Z,5.43
2018-01-03T10:14:22.920Z,5.60
2018-01-03T10:16:49.320Z,5.77
2018-01-03T10:19:15.724Z,4.53
2018-01-03T10:21:42.186Z,6.00
2018-01-03T10:24:08.668Z,4.43
2018-01-03T10:26:35.207Z,4.87
2018-01-03T10:29:01.667Z,7.43
2018-01-03T10:31:28.427Z,6.60
2018-01-03T10:33:54.820Z,6.63
2018-01-03T10:36:21.260Z,5.13
2018-01-03T10:38:47.675Z,6.90
2018-01-03T10:41:14.074Z,4.43
2018-01-03T10:43:40.503Z,5.37
2018-01-03T10:46:06.879Z,7.13
2018-01-03T10:48:33.247Z,6.03
2018-01-03T10:50:59.673Z,6.40
2018-01-03T10:53:26.064Z,4.77
2018-01-03T10:55:52.447Z,5.80
2018-01-03T10:58:18.909Z,6.47
2018-01-03T11:00:45.472Z,4.00
2018-01-03T11:03:11.892Z,3.43
2018-01-03T11:05:38.419Z,5.20
2018-01-03T11:08:04.869Z,5.07
2018-01-03T11:10:31.303Z,4.53
2018-01-03T11:12:57.940Z,6.77
2018-01-03T11:15:24.301Z,4.47
2018-01-03T11:17:50.675Z,4.93
2018-01-03T11:20:17.052Z,4.73
2018-01-03T11:22:43.483Z,6.37
2018-01-03T11:25:10.191Z,6.90
2018-01-03T11:27:36.624Z,5.00
2018-01-03T11:30:03.048Z,4.83
2018-01-03T11:32:29.581Z,7.33
2018-01-03T11:34:56.027Z,4.93
2018-01-03T11:37:22.472Z,6.20
2018-01-03T11:39:48.866Z,6.13
2018-01-03T11:42:15.979Z,5.47
2018-01-03T11:44:42.428Z,5.87
2018-01-03T11:47:09.104Z,4.67
2018-01-03T11:49:35.627Z,5.00
2018-01-03T11:52:02.091Z,8.03
2018-01-03T11:54:29.577Z,7.13
2018-01-03T11:56:56.307Z,7.33
2018-01-03T11:59:22.735Z,7.63
2018-01-03T12:01:49.259Z,8.87
2018-01-03T12:04:15.895Z,4.63
2018-01-03T12:06:42.273Z,4.13
2018-01-03T12:09:08.760Z,4.20
2018-01-03T12:11:35.336Z,5.67
2018-01-03T12:14:01.699Z,5.57
2018-01-03T12:16:28.079Z,5.70
2018-01-03T12:18:54.623Z,5.23
2018-01-03T12:21:21.239Z,6.67
2018-01-03T12:23:47.817Z,5.53
2018-01-03T12:26:14.303Z,5.93
2018-01-03T12:28:40.762Z,7.13
2018-01-03T12:31:07.327Z,4.83
2018-01-03T12:33:33.844Z,5.83
2018-01-03T12:36:00.268Z,4.70
2018-01-03T12:38:26.779Z,5.67
2018-01-03T12:40:53.271Z,5.50
2018-01-03T12:43:19.703Z,4.90
2018-01-03T12:45:46.112Z,5.50
2018-01-03T12:48:12.511Z,7.20
2018-01-03T12:50:38.967Z,7.17
2018-01-03T12:53:05.345Z,8.93
2018-01-03T12:55:31.867Z,7.47
2018-01-03T12:57:58.240Z,6.90
2018-01-03T13:00:24.595Z,4.27
2018-01-03T13:02:51.023Z,6.77
2018-01-03T13:05:17.379Z,5.03
2018-01-03T13:07:43.719Z,7.17
2018-01-03T13:10:10.191Z,4.23
2018-01-03T13:12:36.655Z,6.60
2018-01-03T13:15:03.091Z,5.03
2018-01-03T13:17:29.531Z,6.17
2018-01-03T13:19:55.919Z,7.07
2018-01-03T13:22:22.303Z,6.00
2018-01-03T13:24:48.735Z,5.70
2018-01-03T13:27:15.109Z,7.07
2018-01-03T13:29:41.552Z,5.57
2018-01-03T13:32:07.963Z,7.87
2018-01-03T13:34:34.360Z,8.13
2018-01-03T13:37:00.734Z,11.77
2018-01-03T13:39:27.198Z,6.87
2018-01-03T13:41:53.551Z,8.57
2018-01-03T13:44:19.891Z,5.10
2018-01-03T13:46:46.324Z,6.03
2018-01-03T13:49:12.734Z,9.63
2018-01-03T13:51:39.132Z,6.70
2018-01-03T13:54:05.820Z,9.17
2018-01-03T13:56:33.289Z,7.43
2018-01-03T13:58:59.715Z,5.73
2018-01-03T14:01:26.224Z,7.30
2018-01-03T14:03:52.609Z,8.90
2018-01-03T14:06:19.090Z,6.10
2018-01-03T14:08:45.585Z,6.07
2018-01-03T14:11:12.124Z,12.23
2018-01-03T14:13:39.808Z,13.00
2018-01-03T14:16:06.324Z,11.20
2018-01-03T14:18:32.718Z,9.47
2018-01-03T14:20:59.135Z,18.27
2018-01-03T14:23:25.627Z,8.17
2018-01-03T14:25:52.198Z,8.73
2018-01-03T14:28:18.659Z,7.10
2018-01-03T14:30:45.128Z,6.40
2018-01-03T14:33:11.792Z,7.33
2018-01-03T14:35:38.211Z,7.73
2018-01-03T14:38:04.615Z,9.57
2018-01-03T14:40:31.065Z,10.20
2018-01-03T14:42:57.571Z,17.97
2018-01-03T14:45:24.102Z,26.67
2018-01-03T14:47:50.514Z,38.53
2018-01-03T14:50:16.936Z,29.30
2018-01-03T14:52:43.714Z,26.37
2018-01-03T14:55:10.210Z,26.47
2018-01-03T14:57:36.667Z,24.93
2018-01-03T15:00:03.151Z,22.23
2018-01-03T15:02:29.627Z,23.40
2018-01-03T15:04:55.999Z,25.77
2018-01-03T15:07:22.467Z,30.07
2018-01-03T15:09:48.814Z,46.23
2018-01-03T15:12:15.379Z,56.53
2018-01-03T15:14:41.868Z,61.97
2018-01-03T15:17:08.267Z,61.00
2018-01-03T15:19:34.679Z,62.03
2018-01-03T15:22:01.092Z,56.57
2018-01-03T15:24:27.503Z,58.37
2018-01-03T15:26:53.902Z,50.57
2018-01-03T15:29:20.371Z,53.63
2018-01-03T15:31:46.784Z,52.90
2018-01-03T15:34:13.166Z,57.87
2018-01-03T15:36:39.640Z,60.70
2018-01-03T15:39:06.087Z,59.53
2018-01-03T15:41:32.465Z,65.80
2018-01-03T15:44:00.168Z,63.73
2018-01-03T15:46:26.547Z,65.20
2018-01-03T15:48:52.930Z,64.10
2018-01-03T15:51:19.960Z,64.73
2018-01-03T15:53:46.368Z,63.87
2018-01-03T15:56:12.873Z,59.23
2018-01-03T15:58:39.305Z,67.50
2018-01-03T16:01:05.730Z,80.93
2018-01-03T16:03:32.117Z,102.03
2018-01-03T16:05:58.776Z,116.13
2018-01-03T16:08:25.331Z,156.13
2018-01-03T16:10:52.523Z,171.93
2018-01-03T16:13:18.987Z,180.70
2018-01-03T16:15:45.420Z,196.77
2018-01-03T16:18:15.194Z,199.10
2018-01-03T16:20:42.026Z,190.47
2018-01-03T16:23:08.512Z,201.80
2018-01-03T16:25:34.936Z,187.90
2018-01-03T16:28:01.417Z,206.40
2018-01-03T16:30:27.819Z,196.80
2018-01-03T16:32:54.288Z,202.33
2018-01-03T16:35:20.700Z,200.33
2018-01-03T16:37:47.088Z,208.30
2018-01-03T16:40:14.375Z,201.90
2018-01-03T16:42:40.856Z,211.93
2018-01-03T16:45:07.248Z,212.93
2018-01-03T16:47:33.647Z,216.77
2018-01-03T16:50:00.189Z,216.03
2018-01-03T16:52:32.710Z,211.10
2018-01-03T16:54:59.184Z,192.47
2018-01-03T16:57:25.662Z,197.67
2018-01-03T16:59:52.019Z,215.53
2018-01-03T17:02:18.427Z,229.33
2018-01-03T17:04:45.007Z,245.03
2018-01-03T17:07:11.467Z,235.83
2018-01-03T17:09:37.834Z,228.30
2018-01-03T17:12:04.259Z,203.57
2018-01-03T17:14:30.625Z,197.43
2018-01-03T17:16:56.995Z,179.73
2018-01-03T17:19:23.441Z,176.00
2018-01-03T17:21:49.888Z,185.07
2018-01-03T17:24:16.287Z,193.97
2018-01-03T17:26:42.700Z,214.03
2018-01-03T17:29:09.087Z,229.40
2018-01-03T17:31:35.595Z,223.73
2018-01-03T17:34:02.075Z,225.80
2018-01-03T17:36:28.487Z,233.53
2018-01-03T17:38:55.071Z,235.40
2018-01-03T17:41:21.478Z,219.43
2018-01-03T17:43:47.867Z,228.47
2018-01-03T17:46:14.229Z,230.50
2018-01-03T17:48:40.727Z,230.00
2018-01-03T17:51:07.167Z,222.23
2018-01-03T17:53:33.571Z,226.03
2018-01-03T17:56:00.022Z,253.43
2018-01-03T17:58:26.440Z,285.70
2018-01-03T18:00:52.835Z,252.33
2018-01-03T18:03:19.267Z,260.30
2018-01-03T18:05:45.711Z,285.43
2018-01-03T18:08:12.139Z,217.57
2018-01-03T18:10:38.604Z,216.27
2018-01-03T18:13:04.975Z,193.20
2018-01-03T18:15:31.383Z,197.00
2018-01-03T18:17:57.759Z,204.67
2018-01-03T18:20:24.168Z,180.47
2018-01-03T18:22:50.571Z,170.33
2018-01-03T18:25:16.975Z,160.57
2018-01-03T18:27:43.430Z,175.27
2018-01-03T18:30:09.843Z,174.57
2018-01-03T18:32:36.335Z,160.77
2018-01-03T18:35:02.763Z,140.83
2018-01-03T18:37:29.400Z,135.60
2018-01-03T18:39:56.067Z,139.07
2018-01-03T18:42:22.436Z,140.57
2018-01-03T18:44:48.823Z,139.37
2018-01-03T18:47:15.279Z,139.40
2018-01-03T18:49:41.666Z,144.53
2018-01-03T18:52:08.068Z,144.63
2018-01-03T18:54:34.576Z,151.50
2018-01-03T18:57:01.036Z,150.03
2018-01-03T18:59:27.516Z,146.40
2018-01-03T19:01:53.933Z,153.90
2018-01-03T19:04:20.388Z,161.23
2018-01-03T19:06:46.787Z,193.97
2018-01-03T19:09:13.202Z,195.87
2018-01-03T19:11:39.612Z,213.03
2018-01-03T19:14:05.945Z,234.67
2018-01-03T19:16:32.375Z,222.47
2018-01-03T19:18:58.788Z,230.23
2018-01-03T19:21:25.219Z,254.67
2018-01-03T19:23:51.623Z,267.90
2018-01-03T19:26:18.036Z,252.07
2018-01-03T19:28:44.440Z,257.53
2018-01-03T19:31:10.883Z,254.30
2018-01-03T19:33:37.229Z,246.13
2018-01-03T19:36:03.660Z,231.60
2018-01-03T19:38:30.094Z,247.57
2018-01-03T19:40:56.503Z,229.97
2018-01-03T19:43:22.892Z,230.10
2018-01-03T19:45:49.303Z,217.17
2018-01-03T19:48:15.711Z,172.60
2018-01-03T19:50:42.134Z,117.00
2018-01-03T19:53:08.574Z,106.00
2018-01-03T19:55:35.037Z,93.20
2018-01-03T19:58:01.427Z,97.10
2018-01-03T20:00:27.924Z,97.33
2018-01-03T20:02:54.400Z,111.00
2018-01-03T20:05:20.783Z,121.80
2018-01-03T20:07:47.218Z,130.53
2018-01-03T20:10:13.634Z,111.93
2018-01-03T20:12:39.984Z,117.87
2018-01-03T20:15:06.395Z,113.67
2018-01-03T20:17:32.779Z,108.83
2018-01-03T20:19:59.159Z,111.60
2018-01-03T20:22:25.586Z,105.13
2018-01-03T20:24:52.039Z,109.00
2018-01-03T20:27:18.426Z,117.20
2018-01-03T20:29:44.855Z,115.70
2018-01-03T20:32:11.223Z,116.10
2018-01-03T20:34:37.626Z,122.87
2018-01-03T20:37:04.065Z,130.77
2018-01-03T20:39:30.447Z,125.00
2018-01-03T20:41:56.859Z,124.23
2018-01-03T20:44:23.276Z,124.87
2018-01-03T20:46:49.683Z,131.30
2018-01-03T20:49:16.631Z,143.00
2018-01-03T20:51:43.148Z,163.70
2018-01-03T20:54:09.535Z,146.47
2018-01-03T20:56:35.948Z,145.40
2018-01-03T20:59:02.367Z,160.13
2018-01-03T21:01:28.759Z,153.83
2018-01-03T21:03:55.135Z,150.13
2018-01-03T21:06:21.575Z,143.63
2018-01-03T21:08:47.960Z,148.80
2018-01-03T21:11:14.336Z,155.33
2018-01-03T21:13:40.736Z,139.70
2018-01-03T21:16:07.178Z,151.60
2018-01-03T21:18:33.598Z,163.40
2018-01-03T21:21:00.022Z,165.90
2018-01-03T21:23:26.399Z,184.33
2018-01-03T21:25:52.787Z,175.90
2018-01-03T21:28:19.231Z,150.87
2018-01-03T21:30:45.907Z,155.60
2018-01-03T21:33:12.306Z,139.03
2018-01-03T21:35:38.739Z,140.17
2018-01-03T21:38:05.115Z,140.30
2018-01-03T21:40:31.507Z,136.53
2018-01-03T21:42:57.948Z,148.80
2018-01-03T21:45:24.371Z,147.63
2018-01-03T21:47:50.759Z,155.77
2018-01-03T21:50:17.163Z,168.20
2018-01-03T21:52:43.572Z,167.73
2018-01-03T21:55:09.926Z,159.20
2018-01-03T21:57:36.423Z,141.73
2018-01-03T22:00:02.815Z,131.37
2018-01-03T22:02:29.253Z,92.83
2018-01-03T22:04:55.699Z,81.33
2018-01-03T22:07:22.149Z,72.47
2018-01-03T22:09:48.549Z,69.57
2018-01-03T22:12:15.051Z,58.97
2018-01-03T22:14:41.471Z,51.43
2018-01-03T22:17:07.880Z,50.97
2018-01-03T22:19:34.286Z,53.33
2018-01-03T22:22:00.687Z,57.63
2018-01-03T22:24:27.072Z,52.80
2018-01-03T22:26:53.530Z,46.87
2018-01-03T22:29:19.920Z,56.13
2018-01-03T22:31:46.294Z,52.73
2018-01-03T22:34:12.778Z,45.60
2018-01-03T22:36:39.212Z,50.57
2018-01-03T22:39:05.583Z,53.67
2018-01-03T22:41:32.039Z,53.80
2018-01-03T22:43:58.414Z,51.37
2018-01-03T22:46:24.988Z,55.57
2018-01-03T22:48:51.418Z,53.30
2018-01-03T22:51:17.771Z,58.03
2018-01-03T22:53:44.199Z,49.43
2018-01-03T22:56:10.608Z,52.20
2018-01-03T22:58:37.009Z,62.40
2018-01-03T23:01:03.419Z,55.37
2018-01-03T23:03:29.898Z,58.77
2018-01-03T23:05:56.251Z,61.43
2018-01-03T23:08:22.679Z,59.63
2018-01-03T23:10:49.083Z,62.30
2018-01-03T23:13:15.478Z,70.03
2018-01-03T23:15:41.891Z,91.40
2018-01-03T23:18:08.332Z,98.37
2018-01-03T23:20:34.727Z,91.33
2018-01-03T23:23:01.109Z,99.77
2018-01-03T23:25:27.516Z,98.53
2018-01-03T23:27:54.023Z,108.27
2018-01-03T23:30:20.404Z,104.87
2018-01-03T23:32:46.847Z,103.10
2018-01-03T23:35:13.225Z,92.00
2018-01-03T23:37:39.671Z,75.73
2018-01-03T23:40:06.099Z,67.63
2018-01-03T23:42:32.521Z,63.43
2018-01-03T23:44:58.907Z,64.27
2018-01-03T23:47:25.368Z,58.33
2018-01-03T23:49:51.759Z,61.90
2018-01-03T23:52:18.104Z,60.33
2018-01-03T23:54:44.523Z,65.33
2018-01-03T23:57:10.935Z,52.83
2018-01-03T23:59:37.651Z,47.17
